KDFI/DFI METAR and TAF weather

Enter ICAO airport designator
Station Type Date Time Source
KDFI METAR 2020/07/09 22:53 UTC NOAA

KDFI 092253Z AUTO 00000KT 10SM VCTS -RA SCT100 BKN120 26/19 A2986 RMK AO2 LTG DSNT W RAB08 TSE00B03E18B26E46 SLP106 P0007 T02560194


Station Type Date Time Source
KDFI Decoded METAR 2020/07/09 22:53 UTC NOAA

DEFIANCE MEMORIAL AIRPORT, OH, United States (KDFI) 41-20N 84-26W 219M
Jul 09, 2020 - 06:53 PM EDT / 2020.07.09 2253 UTC
Wind: Calm:0
Visibility: 10 mile(s):0
Sky conditions: mostly cloudy
Weather: thunder in the vicinity; light rain; Lightning observed
Precipitation last hour: 0.07 inches
Temperature: 78.1 F (25.6 C)
Dew Point: 66.9 F (19.4 C)
Relative Humidity: 68%
Pressure (altimeter): 29.86 in. Hg (1011 hPa)
ob: KDFI 092253Z AUTO 00000KT 10SM VCTS -RA SCT100 BKN120 26/19 A2986 RMK AO2 LTG DSNT W RAB08 TSE00B03E18B26E46 SLP106 P0007 T02560194
cycle: 23

Station Type Date Time Source
KDFI TAF UTC NOAA

Error!

Example: see airport list